Time;durP1;ratioP1;P1;durP2;ratioP2;P2;SDS_P1;SDS_P2;PMS_P1;PMS_P2;Temp;Humidity;BMP_temperature;BMP_pressure;BME280_temperature;BME280_humidity;BME280_pressure;Samples;Min_cycle;Max_cycle;Signal;HPM_P1;HPM_P2
2022/10/17 00:02:13;;;;;;;6.32;5.85;;;;;;;14.69;100.00;101115.91;6052115;23;20029;-73
2022/10/17 00:04:39;;;;;;;6.97;6.55;;;;;;;14.74;100.00;101130.53;6040515;23;20026;-73
2022/10/17 00:07:06;;;;;;;6.30;5.90;;;;;;;14.82;100.00;101132.69;6086942;23;20014;-72
2022/10/17 00:09:32;;;;;;;6.50;6.10;;;;;;;14.78;100.00;101107.41;6035679;23;20026;-73
2022/10/17 00:11:59;;;;;;;7.45;6.78;;;;;;;14.80;100.00;101102.88;6078839;23;20014;-73
2022/10/17 00:14:25;;;;;;;6.53;6.03;;;;;;;14.98;100.00;101121.16;6031661;23;20015;-73
2022/10/17 00:16:52;;;;;;;7.25;6.53;;;;;;;14.99;100.00;101128.13;6049755;23;20030;-73
2022/10/17 00:19:18;;;;;;;6.57;6.07;;;;;;;15.03;100.00;101122.53;6036394;23;20010;-73
2022/10/17 00:21:45;;;;;;;6.25;5.82;;;;;;;15.06;100.00;101116.22;6027238;23;20059;-72
2022/10/17 00:24:11;;;;;;;7.13;6.63;;;;;;;15.04;100.00;101132.19;6060759;23;20018;-73
2022/10/17 00:26:38;;;;;;;6.80;6.22;;;;;;;14.72;100.00;101076.94;6045728;23;20670;-73
2022/10/17 00:29:05;;;;;;;7.03;6.53;;;;;;;14.79;100.00;101097.69;6059517;23;20601;-72
2022/10/17 00:31:32;;;;;;;7.25;6.65;;;;;;;14.94;100.00;101131.06;6062292;23;20018;-72
2022/10/17 00:33:58;;;;;;;7.20;6.70;;;;;;;14.71;100.00;101087.59;6056754;23;20096;-73
2022/10/17 00:36:25;;;;;;;6.80;6.38;;;;;;;14.81;100.00;101104.56;6078666;23;20064;-73
2022/10/17 00:38:54;;;;;;;7.40;6.90;;;;;;;14.97;100.00;101133.50;6044232;23;20424;-73
2022/10/17 00:41:24;;;;;;;6.25;5.85;;;;;;;14.98;100.00;101137.00;6049219;23;20034;-72
2022/10/17 00:43:55;;;;;;;7.10;6.47;;;;;;;15.01;100.00;101131.50;6079495;23;20775;-74
2022/10/17 00:46:24;;;;;;;6.50;6.00;;;;;;;14.87;100.00;101112.09;6087179;23;20080;-74
2022/10/17 00:48:53;;;;;;;6.97;6.47;;;;;;;14.71;100.00;101077.03;6017156;23;20030;-73
2022/10/17 00:51:26;;;;;;;6.53;6.03;;;;;;;14.98;100.00;101121.16;6072865;23;20029;-74
2022/10/17 00:53:53;;;;;;;6.63;6.22;;;;;;;14.60;100.00;101076.88;6080468;23;20032;-74
2022/10/17 00:56:20;;;;;;;6.82;6.30;;;;;;;14.43;100.00;101052.31;6082523;23;20025;-72
2022/10/17 00:58:46;;;;;;;7.05;6.55;;;;;;;14.88;100.00;101126.19;6052428;23;20032;-73
2022/10/17 01:01:13;;;;;;;6.80;6.28;;;;;;;14.70;100.00;101115.81;6073149;23;20083;-74
2022/10/17 01:03:40;;;;;;;7.70;7.13;;;;;;;14.56;100.00;101089.41;6067553;23;20526;-73
2022/10/17 01:06:06;;;;;;;6.40;6.00;;;;;;;14.74;100.00;101125.25;6052360;23;20057;-74
2022/10/17 01:08:33;;;;;;;7.10;6.50;;;;;;;14.67;100.00;101134.50;6057296;23;20028;-72
2022/10/17 01:11:16;;;;;;;6.75;6.25;;;;;;;14.64;100.00;101121.47;6076266;23;20018;-71
2022/10/17 01:13:53;;;;;;;6.50;6.10;;;;;;;14.48;100.00;101118.91;6077562;23;20096;-73
2022/10/17 01:16:42;;;;;;;7.03;6.53;;;;;;;14.58;100.00;101131.59;6049851;23;20353;-72
2022/10/17 01:19:41;;;;;;;6.78;6.38;;;;;;;14.55;100.00;101125.53;6080915;23;20042;-72
2022/10/17 01:22:32;;;;;;;6.55;6.15;;;;;;;14.41;100.00;101109.66;6021127;23;20029;-72
2022/10/17 01:25:09;;;;;;;6.47;6.07;;;;;;;14.06;100.00;101057.25;6083902;23;20070;-71
2022/10/17 01:27:59;;;;;;;17.60;16.60;;;;;;;14.54;100.00;101125.63;6020401;23;20704;-74
2022/10/17 01:30:55;;;;;;;6.90;6.40;;;;;;;14.51;100.00;101128.44;6029059;23;20080;-72
2022/10/17 01:33:40;;;;;;;9.65;5.68;;;;;;;14.38;100.00;101124.88;6055556;23;20038;-73
2022/10/17 01:36:44;;;;;;;6.88;6.43;;;;;;;14.55;100.00;101125.53;6080087;23;20074;-74
2022/10/17 01:39:35;;;;;;;6.55;6.05;;;;;;;14.52;100.00;101123.06;6067242;23;20096;-72
2022/10/17 01:42:16;;;;;;;6.57;6.18;;;;;;;14.51;100.00;101117.88;6054260;23;20026;-72
2022/10/17 01:44:52;;;;;;;7.82;6.75;;;;;;;14.51;100.00;101121.38;6063622;23;20018;-71
2022/10/17 01:47:24;;;;;;;6.45;6.05;;;;;;;14.54;100.00;101107.97;6058650;23;20081;-73
2022/10/17 01:49:53;;;;;;;6.90;6.40;;;;;;;14.39;100.00;101084.31;6049383;23;20467;-72
2022/10/17 01:52:29;;;;;;;6.70;6.25;;;;;;;14.50;100.00;101105.63;6080684;23;20476;-72
2022/10/17 01:55:18;;;;;;;5.88;5.47;;;;;;;14.41;100.00;101087.69;6070808;23;20026;-73
2022/10/17 01:57:54;;;;;;;6.60;6.13;;;;;;;14.14;100.00;101044.44;6081383;23;20095;-72
2022/10/17 02:00:24;;;;;;;7.25;6.75;;;;;;;14.36;100.00;101077.44;6058252;23;20042;-73
2022/10/17 02:02:58;;;;;;;8.20;6.35;;;;;;;14.49;100.00;101094.22;6090516;23;20017;-73
2022/10/17 02:05:30;;;;;;;6.40;5.90;;;;;;;14.18;100.00;101045.09;6082852;23;20492;-70
2022/10/17 02:07:57;;;;;;;6.63;6.13;;;;;;;14.32;100.00;101071.47;6057964;23;20034;-72
2022/10/17 02:10:53;;;;;;;6.32;5.90;;;;;;;14.34;100.00;101089.88;6080883;23;20466;-72
2022/10/17 02:13:36;;;;;;;6.78;6.32;;;;;;;14.02;100.00;101028.50;6077739;23;20794;-74
2022/10/17 02:16:05;;;;;;;6.22;5.82;;;;;;;14.43;100.00;101089.28;6074214;23;20076;-73
2022/10/17 02:18:53;;;;;;;6.40;6.03;;;;;;;14.42;100.00;101082.31;6052911;23;20033;-74
2022/10/17 02:21:32;;;;;;;6.90;6.40;;;;;;;14.01;100.00;101027.66;6082137;23;20026;-72
2022/10/17 02:24:20;;;;;;;6.13;5.63;;;;;;;14.37;100.00;101094.94;6044312;23;20022;-74
2022/10/17 02:26:58;;;;;;;7.03;6.53;;;;;;;14.28;100.00;101075.25;6076849;23;20432;-76
2022/10/17 02:29:31;;;;;;;6.43;5.97;;;;;;;14.37;100.00;101087.03;6073823;23;20034;-72
2022/10/17 02:32:03;;;;;;;6.53;6.13;;;;;;;14.36;100.00;101086.19;6049511;23;20044;-72
2022/10/17 02:34:49;;;;;;;6.60;6.10;;;;;;;14.38;100.00;101094.03;6053752;23;20026;-72
2022/10/17 02:37:20;;;;;;;6.35;5.95;;;;;;;14.21;100.00;101071.28;6079426;23;20022;-73
2022/10/17 02:39:49;;;;;;;6.97;6.47;;;;;;;14.26;100.00;101086.84;6082674;23;20060;-72
2022/10/17 02:42:16;;;;;;;7.85;6.30;;;;;;;13.87;100.00;101017.94;6042863;23;20014;-74
2022/10/17 02:44:44;;;;;;;6.10;5.70;;;;;;;13.87;100.00;101020.59;6075277;23;20025;-72
2022/10/17 02:47:42;;;;;;;6.70;6.22;;;;;;;14.28;100.00;101088.44;6055910;23;20021;-73
2022/10/17 02:50:09;;;;;;;6.70;6.18;;;;;;;14.17;100.00;101075.06;6051108;23;20011;-72
2022/10/17 02:52:51;;;;;;;6.32;5.80;;;;;;;14.24;100.00;101092.22;6076829;23;20415;-72
2022/10/17 02:55:22;;;;;;;6.93;6.43;;;;;;;14.24;100.00;101094.88;6057213;23;20017;-74
2022/10/17 02:57:53;;;;;;;6.67;6.17;;;;;;;14.27;100.00;101085.91;6076595;23;20028;-73
2022/10/17 03:00:21;;;;;;;6.50;6.00;;;;;;;14.26;100.00;101113.25;6078825;23;20022;-73
2022/10/17 03:02:50;;;;;;;6.70;6.07;;;;;;;14.27;100.00;101099.09;6052346;23;20093;-72
2022/10/17 03:05:22;;;;;;;8.50;6.20;;;;;;;14.21;100.00;101095.03;6049506;23;20025;-72
2022/10/17 03:07:49;;;;;;;5.68;5.38;;;;;;;14.21;100.00;101095.03;6051632;23;20096;-73
2022/10/17 03:10:16;;;;;;;7.00;6.50;;;;;;;13.97;100.00;101060.44;6041393;23;20030;-72
2022/10/17 03:12:43;;;;;;;7.40;6.80;;;;;;;14.21;100.00;101096.84;6071964;23;20025;-74
2022/10/17 03:15:11;;;;;;;7.03;6.53;;;;;;;14.25;100.00;101091.31;6077653;23;20022;-73
2022/10/17 03:17:37;;;;;;;7.10;6.60;;;;;;;14.32;100.00;101103.16;6046593;23;20019;-72
2022/10/17 03:20:05;;;;;;;6.75;6.25;;;;;;;14.32;100.00;101092.59;6083853;23;20026;-74
2022/10/17 03:22:32;;;;;;;6.15;5.75;;;;;;;14.34;100.00;101088.06;6078823;23;20109;-72
2022/10/17 03:24:58;;;;;;;6.90;6.47;;;;;;;14.30;100.00;101085.72;6076884;23;20034;-72
2022/10/17 03:27:25;;;;;;;6.40;6.00;;;;;;;14.20;100.00;101061.69;6074967;23;20415;-73
2022/10/17 03:29:52;;;;;;;7.57;6.88;;;;;;;14.02;100.00;101041.69;6077529;23;20096;-73
2022/10/17 03:32:18;;;;;;;6.70;6.30;;;;;;;14.33;100.00;101090.81;6029972;23;20072;-74
2022/10/17 03:34:44;;;;;;;6.55;6.05;;;;;;;14.18;100.00;101074.13;6076183;23;20451;-73
2022/10/17 03:37:11;;;;;;;9.45;6.90;;;;;;;14.35;100.00;101099.47;6048555;23;20035;-73
2022/10/17 03:39:37;;;;;;;6.97;6.47;;;;;;;14.41;100.00;101117.59;6088566;23;20011;-72
2022/10/17 03:42:03;;;;;;;6.97;6.38;;;;;;;14.43;100.00;101110.41;6043924;23;20042;-72
2022/10/17 03:44:30;;;;;;;6.43;6.03;;;;;;;14.25;100.00;101085.16;6084813;23;20022;-73
2022/10/17 03:46:56;;;;;;;6.40;5.90;;;;;;;14.18;100.00;101074.13;6059450;23;20088;-73
2022/10/17 03:49:23;;;;;;;6.85;6.20;;;;;;;14.40;100.00;101109.78;6080713;23;20026;-71
2022/10/17 03:51:49;;;;;;;6.90;6.30;;;;;;;14.20;100.00;101074.03;6060566;23;20030;-74
2022/10/17 03:54:15;;;;;;;6.70;6.20;;;;;;;14.44;100.00;101124.50;6054117;23;20031;-74
2022/10/17 03:56:42;;;;;;;11.95;5.80;;;;;;;14.14;100.00;101075.25;6073263;23;20100;-72
2022/10/17 03:59:13;;;;;;;6.97;6.47;;;;;;;14.52;100.00;101114.28;6046962;23;20088;-72
2022/10/17 04:01:39;;;;;;;6.65;6.25;;;;;;;14.59;100.00;101117.44;6020896;23;20042;-73
2022/10/17 04:04:06;;;;;;;6.60;6.10;;;;;;;14.06;100.00;101045.84;6074296;23;20029;-74
2022/10/17 04:06:32;;;;;;;6.05;5.75;;;;;;;14.53;100.00;101127.41;6052341;23;20034;-72
2022/10/17 04:08:59;;;;;;;7.10;6.32;;;;;;;14.25;100.00;101085.16;6051215;23;20092;-72
2022/10/17 04:11:25;;;;;;;8.23;6.45;;;;;;;14.20;100.00;101074.88;6076990;23;20033;-72
2022/10/17 04:13:54;;;;;;;6.45;6.05;;;;;;;14.52;100.00;101130.16;6052045;23;20022;-72
2022/10/17 04:16:20;;;;;;;6.93;6.28;;;;;;;14.45;100.00;101142.88;6047660;23;20752;-73
2022/10/17 04:18:52;;;;;;;6.50;6.00;;;;;;;14.46;100.00;101146.38;6085895;23;20026;-72
2022/10/17 04:21:18;;;;;;;6.68;6.18;;;;;;;14.12;100.00;101098.25;6047438;23;21093;-74
2022/10/17 04:23:45;;;;;;;7.53;6.65;;;;;;;14.03;100.00;101085.59;6074025;23;20090;-75
2022/10/17 04:26:11;;;;;;;6.72;6.32;;;;;;;14.45;100.00;101149.94;6042514;23;20031;-73
2022/10/17 04:28:37;;;;;;;8.32;7.60;;;;;;;14.08;100.00;101099.38;6076577;23;20014;-73
2022/10/17 04:31:12;;;;;;;6.15;5.75;;;;;;;14.42;100.00;101144.84;6077863;23;20018;-71
2022/10/17 04:33:38;;;;;;;6.78;6.28;;;;;;;14.45;100.00;101132.31;6046306;23;20058;-75
2022/10/17 04:36:09;;;;;;;6.85;6.35;;;;;;;13.89;100.00;101038.94;6079299;23;20014;-73
2022/10/17 04:38:35;;;;;;;6.93;6.45;;;;;;;14.30;100.00;101125.31;6071027;23;20443;-73
2022/10/17 04:41:05;;;;;;;7.35;6.50;;;;;;;13.95;100.00;101080.78;6071602;23;20084;-72
2022/10/17 04:43:34;;;;;;;6.88;6.38;;;;;;;14.34;100.00;101138.25;6076047;23;20080;-73
2022/10/17 04:46:03;;;;;;;6.30;5.82;;;;;;;14.01;100.00;101100.69;6053451;23;20703;-72
2022/10/17 04:48:30;;;;;;;7.65;7.05;;;;;;;14.14;100.00;101114.84;6071778;23;20022;-72
2022/10/17 04:51:02;;;;;;;5.88;5.57;;;;;;;14.43;100.00;101154.47;6049952;23;20014;-72
2022/10/17 04:53:34;;;;;;;6.90;6.20;;;;;;;14.48;100.00;101152.41;6087221;23;20038;-72
2022/10/17 04:56:01;;;;;;;6.45;6.05;;;;;;;14.44;100.00;101148.25;6049995;23;20673;-72
2022/10/17 04:58:28;;;;;;;6.72;6.22;;;;;;;13.96;100.00;101083.34;6085505;23;20214;-73
2022/10/17 05:00:55;;;;;;;6.88;6.35;;;;;;;14.40;100.00;101157.31;6053965;23;20084;-73
2022/10/17 05:03:21;;;;;;;6.38;5.97;;;;;;;14.42;100.00;101158.06;6075532;23;20034;-74
2022/10/17 05:05:48;;;;;;;6.55;6.07;;;;;;;14.42;100.00;101153.63;6049532;23;20266;-72
2022/10/17 05:08:14;;;;;;;6.65;6.25;;;;;;;14.33;100.00;101133.91;6048069;23;20076;-73
2022/10/17 05:10:43;;;;;;;6.18;5.80;;;;;;;14.48;100.00;101155.03;6077842;23;20041;-72
2022/10/17 05:13:10;;;;;;;6.60;6.15;;;;;;;13.28;100.00;100951.16;6030241;23;20510;-73
2022/10/17 05:15:37;;;;;;;6.60;6.10;;;;;;;14.27;100.00;101115.81;6086025;23;20018;-73
2022/10/17 05:18:04;;;;;;;7.00;6.43;;;;;;;14.54;100.00;101155.50;6035260;23;20026;-72
2022/10/17 05:20:32;;;;;;;7.22;6.65;;;;;;;14.62;100.00;101156.88;6083076;23;20388;-73
2022/10/17 05:22:59;;;;;;;6.82;6.32;;;;;;;14.67;100.00;101163.56;6027910;23;20085;-74
2022/10/17 05:25:25;;;;;;;7.63;7.05;;;;;;;14.64;100.00;101162.91;6058654;23;20031;-74
2022/10/17 05:27:52;;;;;;;6.97;6.47;;;;;;;14.73;100.00;101168.47;6076307;23;20049;-74
2022/10/17 05:30:19;;;;;;;6.85;6.30;;;;;;;14.60;100.00;101142.91;6056131;23;20058;-73
2022/10/17 05:32:45;;;;;;;6.68;6.28;;;;;;;14.73;100.00;101172.88;6082373;23;20049;-73
2022/10/17 05:35:11;;;;;;;8.55;6.07;;;;;;;14.69;100.00;101158.16;6050431;23;20026;-73
2022/10/17 05:37:38;;;;;;;6.78;6.28;;;;;;;14.72;100.00;101164.13;6049570;23;20611;-73
2022/10/17 05:40:05;;;;;;;7.57;6.93;;;;;;;14.53;100.00;101124.78;6053074;23;20027;-71
2022/10/17 05:42:31;;;;;;;7.15;6.60;;;;;;;14.88;100.00;101193.09;6067591;23;20062;-72
2022/10/17 05:44:58;;;;;;;11.07;7.28;;;;;;;14.92;100.00;101196.38;6052272;23;20030;-72
2022/10/17 05:47:24;;;;;;;7.50;6.90;;;;;;;14.92;100.00;101202.50;6048235;23;20023;-72
2022/10/17 05:49:51;;;;;;;8.18;5.82;;;;;;;14.83;100.00;101192.50;6059597;23;20017;-73
2022/10/17 05:52:18;;;;;;;7.78;7.18;;;;;;;14.58;100.00;101150.91;6074085;23;20054;-72
2022/10/17 05:54:44;;;;;;;7.10;6.50;;;;;;;14.75;100.00;101168.34;6072099;23;20026;-72
2022/10/17 05:57:11;;;;;;;6.70;6.10;;;;;;;14.83;100.00;101187.22;6055084;23;20030;-72
2022/10/17 05:59:37;;;;;;;6.55;6.13;;;;;;;14.71;100.00;101170.38;6048813;23;20174;-72
2022/10/17 06:02:03;;;;;;;7.15;6.65;;;;;;;14.70;100.00;101176.56;6075988;23;20033;-72
2022/10/17 06:04:30;;;;;;;6.35;5.95;;;;;;;14.84;100.00;101203.94;6054505;23;20273;-72
2022/10/17 06:06:56;;;;;;;6.68;6.18;;;;;;;14.81;100.00;101217.34;6049454;23;20034;-73
2022/10/17 06:09:23;;;;;;;6.55;6.05;;;;;;;14.44;100.00;101158.81;6075822;23;20038;-72
2022/10/17 06:11:49;;;;;;;7.20;6.70;;;;;;;14.63;100.00;101200.81;6083689;23;20052;-73
2022/10/17 06:14:16;;;;;;;7.07;6.57;;;;;;;14.69;100.00;101232.13;6023415;23;20030;-75
2022/10/17 06:16:42;;;;;;;7.28;6.63;;;;;;;14.82;100.00;101259.53;6075094;23;20052;-75
2022/10/17 06:19:10;;;;;;;9.23;6.18;;;;;;;14.83;100.00;101266.50;6083473;23;20040;-73
2022/10/17 06:21:37;;;;;;;6.97;6.38;;;;;;;14.26;100.00;101192.47;6064300;23;20034;-75
2022/10/17 06:24:04;;;;;;;6.32;5.72;;;;;;;14.60;100.00;101249.41;6079258;23;20022;-74
2022/10/17 06:26:30;;;;;;;6.40;5.95;;;;;;;14.77;100.00;101285.38;6105681;23;20021;-74
2022/10/17 06:28:57;;;;;;;7.07;6.50;;;;;;;14.41;100.00;101214.44;6087305;23;20264;-74
2022/10/17 06:31:23;;;;;;;6.60;6.00;;;;;;;14.55;100.00;101219.72;6073726;23;20033;-74
2022/10/17 06:33:50;;;;;;;7.30;6.63;;;;;;;14.91;100.00;101268.66;6043105;23;20551;-74
2022/10/17 06:36:16;;;;;;;6.95;6.45;;;;;;;14.65;100.00;101228.84;6076662;23;20096;-75
2022/10/17 06:38:42;;;;;;;6.97;6.35;;;;;;;14.94;100.00;101273.78;6076715;23;20028;-74
2022/10/17 06:41:13;;;;;;;7.53;6.55;;;;;;;14.80;100.00;101248.19;6074034;23;20031;-74
2022/10/17 06:43:42;;;;;;;7.47;6.93;;;;;;;14.98;100.00;101269.16;6051943;23;20022;-74
2022/10/17 06:46:08;;;;;;;7.05;6.57;;;;;;;15.01;100.00;101266.31;6054245;23;20062;-74
2022/10/17 06:48:35;;;;;;;6.95;6.30;;;;;;;15.16;100.00;101271.50;6050728;23;20063;-74
2022/10/17 06:51:03;;;;;;;6.50;6.10;;;;;;;15.22;100.00;101274.72;6048304;23;20138;-74
2022/10/17 06:53:31;;;;;;;7.05;5.95;;;;;;;15.06;100.00;101261.59;6082995;23;20561;-74
2022/10/17 06:56:01;;;;;;;6.70;6.10;;;;;;;15.02;100.00;101258.31;6049837;23;20026;-75
2022/10/17 06:58:33;;;;;;;7.38;6.78;;;;;;;15.32;100.00;101302.28;6081474;23;20167;-74
2022/10/17 07:01:07;;;;;;;7.43;6.80;;;;;;;15.29;100.00;101295.38;6047684;23;20030;-73
2022/10/17 07:03:40;;;;;;;6.82;6.20;;;;;;;14.38;100.00;101146.00;6054218;23;20468;-75
2022/10/17 07:06:09;;;;;;;8.23;6.90;;;;;;;15.59;100.00;101322.66;6028392;23;20101;-74
2022/10/17 07:08:36;;;;;;;7.45;6.85;;;;;;;15.69;100.00;101321.97;6080101;23;20025;-74
2022/10/17 07:11:14;;;;;;;6.93;6.43;;;;;;;15.63;100.00;101306.47;6056316;23;20030;-74
2022/10/17 07:13:41;;;;;;;7.20;6.60;;;;;;;15.45;100.00;101273.25;6077888;23;20029;-74
2022/10/17 07:16:08;;;;;;;6.57;6.18;;;;;;;15.70;100.00;101306.94;6046703;23;20745;-75
2022/10/17 07:18:35;;;;;;;6.72;6.28;;;;;;;15.75;100.00;101289.00;6075133;23;20101;-75
2022/10/17 07:21:02;;;;;;;7.47;6.88;;;;;;;16.07;100.00;101331.06;6049798;23;20046;-74
2022/10/17 07:23:29;;;;;;;10.77;6.22;;;;;;;15.97;100.00;101300.84;6079516;23;20097;-75
2022/10/17 07:26:01;;;;;;;6.80;6.20;;;;;;;16.20;100.00;101347.88;6080425;23;20110;-74
2022/10/17 07:28:27;;;;;;;9.50;5.80;;;;;;;16.25;100.00;101343.09;6043447;23;20011;-74
2022/10/17 07:30:54;;;;;;;6.82;6.32;;;;;;;16.34;100.00;101344.31;6081540;23;20614;-74
2022/10/17 07:33:20;;;;;;;6.53;6.00;;;;;;;16.02;100.00;101290.81;6045554;23;20018;-75
2022/10/17 07:35:47;;;;;;;7.07;6.20;;;;;;;16.23;100.00;101307.91;6081355;23;20026;-75
2022/10/17 07:38:13;;;;;;;6.80;6.30;;;;;;;16.21;100.00;101283.34;6072047;23;20026;-75
2022/10/17 07:40:39;;;;;;;6.63;6.22;;;;;;;16.74;100.00;101349.59;6077521;23;20115;-74
2022/10/17 07:43:06;;;;;;;6.18;5.78;;;;;;;16.89;100.00;101363.63;6046866;23;20033;-75
2022/10/17 07:45:32;;;;;;;6.60;6.15;;;;;;;16.91;100.00;101348.47;6050508;23;20076;-75
2022/10/17 07:47:58;;;;;;;6.50;5.90;;;;;;;16.94;100.00;101348.25;6047785;23;20030;-75
2022/10/17 07:50:25;;;;;;;6.65;6.15;;;;;;;16.90;100.00;101344.97;6071918;23;20030;-75
2022/10/17 07:52:51;;;;;;;7.05;6.40;;;;;;;16.85;100.00;101325.03;6079042;23;20033;-75
2022/10/17 07:55:17;;;;;;;6.65;6.22;;;;;;;16.68;100.00;101286.41;6051451;23;20072;-74
2022/10/17 07:57:44;;;;;;;10.45;7.13;;;;;;;17.23;100.00;101361.28;6078758;23;20021;-74
2022/10/17 08:00:11;;;;;;;6.97;6.47;;;;;;;17.12;100.00;101343.50;6077549;23;20014;-75
2022/10/17 08:02:37;;;;;;;6.90;6.40;;;;;;;17.30;100.00;101363.41;6049291;23;20007;-74
2022/10/17 08:05:04;;;;;;;6.50;6.10;;;;;;;17.36;100.00;101372.75;6071848;23;20018;-74
2022/10/17 08:07:30;;;;;;;6.45;5.95;;;;;;;17.41;100.00;101380.38;6067117;23;20176;-74
2022/10/17 08:09:56;;;;;;;6.30;5.85;;;;;;;17.40;100.00;101362.75;6084483;23;20635;-74
2022/10/17 08:12:24;;;;;;;6.72;6.32;;;;;;;17.22;100.00;101339.25;6042632;23;20538;-74
2022/10/17 08:14:51;;;;;;;6.30;5.90;;;;;;;17.45;100.00;101382.72;6076250;23;20023;-74
2022/10/17 08:17:17;;;;;;;7.18;6.68;;;;;;;17.01;100.00;101319.50;6054176;23;20042;-74
2022/10/17 08:19:43;;;;;;;6.20;5.80;;;;;;;17.61;100.00;101413.50;6071440;23;20033;-75
2022/10/17 08:22:10;;;;;;;6.25;5.75;;;;;;;17.43;100.00;101384.63;6057586;23;20038;-74
2022/10/17 08:24:36;;;;;;;6.93;6.45;;;;;;;17.81;100.00;101420.88;6082673;23;20014;-74
2022/10/17 08:27:10;;;;;;;6.38;6.03;;;;;;;17.81;100.00;101389.03;6060020;23;20042;-75
2022/10/17 08:29:37;;;;;;;6.93;6.43;;;;;;;18.09;100.00;101406.50;6057424;23;20038;-74
2022/10/17 08:32:03;;;;;;;6.75;6.32;;;;;;;18.27;100.00;101430.88;6078542;23;20096;-73
2022/10/17 08:34:34;;;;;;;7.13;6.53;;;;;;;18.26;100.00;101388.47;6077656;23;20660;-75
2022/10/17 08:37:00;;;;;;;6.78;6.38;;;;;;;18.62;100.00;101448.72;6067361;23;20447;-74
2022/10/17 08:39:27;;;;;;;6.35;5.82;;;;;;;18.68;100.00;101400.41;6073120;23;20021;-74
2022/10/17 08:41:53;;;;;;;6.82;6.22;;;;;;;19.03;100.00;101436.78;6052012;23;20034;-74
2022/10/17 08:44:45;;;;;;;6.90;6.30;;;;;;;19.16;100.00;101436.69;6078739;23;20087;-75
2022/10/17 08:47:27;;;;;;;6.45;6.05;;;;;;;19.08;100.00;101452.41;6085376;23;20089;-73
2022/10/17 08:50:02;;;;;;;7.65;6.65;;;;;;;19.04;100.00;101465.09;6049189;23;20061;-74
2022/10/17 08:52:38;;;;;;;6.55;6.15;;;;;;;18.57;100.00;101388.88;6082753;23;20042;-74
2022/10/17 08:55:17;;;;;;;6.93;6.43;;;;;;;18.43;100.00;101369.47;6079800;23;20471;-74
2022/10/17 08:57:48;;;;;;;6.53;6.13;;;;;;;19.09;100.00;101465.59;6052534;23;20623;-74
2022/10/17 09:00:20;;;;;;;6.50;6.10;;;;;;;19.20;100.00;101467.41;6072715;23;20026;-74
2022/10/17 09:03:05;;;;;;;6.20;5.90;;;;;;;19.32;100.00;101455.00;6081506;23;20026;-74
2022/10/17 09:05:48;;;;;;;6.38;5.97;;;;;;;19.26;100.00;101461.66;6075384;23;20119;-74
2022/10/17 09:08:34;;;;;;;6.70;6.30;;;;;;;19.27;100.00;101458.00;6049372;23;20089;-75
2022/10/17 09:11:24;;;;;;;6.63;6.20;;;;;;;18.95;100.00;101403.78;6086036;23;20089;-76
2022/10/17 09:14:19;;;;;;;6.63;6.22;;;;;;;19.11;100.00;101436.22;6078382;23;20022;-74
2022/10/17 09:17:03;;;;;;;6.55;6.15;;;;;;;19.15;100.00;101439.50;6050583;23;20045;-75
2022/10/17 09:19:35;;;;;;;6.63;6.20;;;;;;;19.34;100.00;101458.38;6057809;23;20034;-74
2022/10/17 09:22:08;;;;;;;6.95;6.30;;;;;;;19.66;100.00;101485.16;6033223;23;20096;-74
2022/10/17 09:24:37;;;;;;;6.75;6.30;;;;;;;19.89;100.00;101486.06;6050433;23;20426;-75
2022/10/17 09:27:10;;;;;;;7.03;6.57;;;;;;;19.77;100.00;101472.88;6055866;23;20200;-74
2022/10/17 09:29:36;;;;;;;;;;;;;;;19.86;100.00;101483.63;6056604;23;20018;-75
2022/10/17 09:32:18;;;;;;;6.45;6.05;;;;;;;19.76;100.00;101466.69;6087328;23;19948;-74
2022/10/17 09:34:45;;;;;;;6.55;6.15;;;;;;;19.96;100.00;101499.72;6052804;23;20014;-74
2022/10/17 09:37:16;;;;;;;6.72;6.32;;;;;;;19.59;100.00;101441.34;6029219;23;20582;-75
2022/10/17 09:39:43;;;;;;;6.70;6.30;;;;;;;20.03;100.00;101497.44;6081896;23;20561;-74
2022/10/17 09:42:17;;;;;;;7.18;6.68;;;;;;;20.06;100.00;101499.84;6050359;23;20558;-75
2022/10/17 09:44:54;;;;;;;7.82;6.03;;;;;;;19.76;100.00;101477.31;6051737;23;20025;-75
2022/10/17 09:47:40;;;;;;;7.00;6.60;;;;;;;19.81;100.00;101507.13;6038728;23;20388;-74
2022/10/17 09:50:27;;;;;;;6.45;6.07;;;;;;;19.85;100.00;101508.59;6053683;23;20487;-76
2022/10/17 09:52:58;;;;;;;6.82;6.43;;;;;;;19.77;100.00;101495.03;6079296;23;20033;-74
2022/10/17 09:55:35;;;;;;;6.75;6.32;;;;;;;19.55;100.00;101471.84;6055300;23;20027;-75
2022/10/17 09:58:04;;;;;;;7.18;6.45;;;;;;;19.77;100.00;101524.31;6086675;23;20209;-75
2022/10/17 10:00:37;;;;;;;6.78;6.38;;;;;;;19.51;100.00;101489.03;6084037;23;20042;-74
2022/10/17 10:03:21;;;;;;;6.70;6.28;;;;;;;19.60;100.00;101519.41;6068499;23;20731;-74
2022/10/17 10:06:14;;;;;;;6.72;6.32;;;;;;;19.63;100.00;101532.50;6081833;23;20084;-74
2022/10/17 10:09:03;;;;;;;6.72;6.32;;;;;;;19.45;100.00;101519.63;6049887;23;20093;-74
2022/10/17 10:11:53;;;;;;;8.38;6.53;;;;;;;19.52;100.00;101544.84;6057051;23;20031;-74
2022/10/17 10:14:35;;;;;;;6.70;6.30;;;;;;;19.31;100.00;101541.97;6027249;23;20026;-74
2022/10/17 10:17:04;;;;;;;8.00;7.35;;;;;;;19.40;100.00;101543.06;6051371;23;20053;-74
2022/10/17 10:19:37;;;;;;;6.95;6.47;;;;;;;19.47;100.00;101543.47;6082486;23;20117;-74
2022/10/17 10:22:16;;;;;;;6.75;6.35;;;;;;;19.55;100.00;101538.41;6044555;23;20035;-75
2022/10/17 10:24:42;;;;;;;6.75;6.35;;;;;;;19.27;100.00;101503.25;6017193;23;20100;-75
2022/10/17 10:27:14;;;;;;;7.15;6.55;;;;;;;19.53;100.00;101513.72;6078146;23;20076;-74
2022/10/17 10:29:47;;;;;;;6.53;6.13;;;;;;;19.69;100.00;101538.19;6073470;23;20100;-74
2022/10/17 10:32:21;;;;;;;6.22;5.93;;;;;;;19.67;100.00;101553.44;6079806;23;20033;-75
2022/10/17 10:35:18;;;;;;;6.70;6.30;;;;;;;19.70;100.00;101557.69;6081103;23;20032;-74
2022/10/17 10:37:50;;;;;;;6.50;6.10;;;;;;;19.60;100.00;101535.38;6054972;23;20019;-74
2022/10/17 10:40:19;;;;;;;;;;;;;;;19.81;100.00;101573.72;6061573;23;20018;-75
2022/10/17 10:42:49;;;;;;;6.30;6.00;;;;;;;19.75;100.00;101574.19;6060353;23;19914;-75
2022/10/17 10:45:19;;;;;;;6.38;5.88;;;;;;;19.85;100.00;101598.31;6056787;23;20042;-73
2022/10/17 10:48:50;;;;;;;6.28;5.88;;;;;;;19.69;100.00;101577.31;6095342;23;20074;-72
2022/10/17 10:51:23;;;;;;;7.18;6.47;;;;;;;19.78;100.00;101592.59;5999358;23;20420;-71
2022/10/17 10:54:00;;;;;;;;;;;;;;;19.80;100.00;101590.66;6070837;23;20022;-73
2022/10/17 10:56:43;;;;;;;6.95;6.55;;;;;;;19.79;100.00;101604.94;6080625;23;19972;-74
2022/10/17 10:59:24;;;;;;;6.68;6.22;;;;;;;19.34;100.00;101535.56;6060885;23;20033;-73
2022/10/17 11:01:56;;;;;;;6.75;6.35;;;;;;;19.79;100.00;101590.78;6071976;23;20060;-75
2022/10/17 11:04:35;;;;;;;6.68;6.28;;;;;;;19.32;100.00;101514.41;6075291;23;20018;-76
2022/10/17 11:07:18;;;;;;;10.85;6.45;;;;;;;19.63;100.00;101551.97;6043180;23;20026;-78
2022/10/17 11:09:55;;;;;;;6.45;6.05;;;;;;;19.53;100.00;101546.50;6078129;23;20663;-76
2022/10/17 11:12:27;;;;;;;6.75;6.35;;;;;;;19.48;100.00;101546.03;6069464;23;20022;-75
2022/10/17 11:15:21;;;;;;;6.97;6.47;;;;;;;19.60;100.00;101578.00;6079280;23;20490;-74
2022/10/17 11:17:56;;;;;;;5.93;5.63;;;;;;;19.56;100.00;101548.09;6076023;23;20036;-75
2022/10/17 11:20:31;;;;;;;6.78;6.18;;;;;;;19.91;100.00;101580.03;6048304;23;20055;-74
2022/10/17 11:23:09;;;;;;;6.63;6.10;;;;;;;20.04;100.00;101576.41;6072546;23;20033;-76
2022/10/17 11:25:38;;;;;;;6.63;6.22;;;;;;;20.11;100.00;101585.63;6082005;23;20034;-74
2022/10/17 11:28:16;;;;;;;7.32;6.90;;;;;;;20.09;100.00;101592.88;6059977;23;20010;-74
2022/10/17 11:30:51;;;;;;;7.07;6.40;;;;;;;20.08;100.00;101602.69;6071010;23;20135;-74
2022/10/17 11:33:26;;;;;;;6.78;6.30;;;;;;;19.95;100.00;101593.97;6026934;23;20181;-73
2022/10/17 11:35:58;;;;;;;7.13;6.47;;;;;;;20.02;100.00;101603.16;6043473;23;20026;-74
2022/10/17 11:38:45;;;;;;;6.90;6.20;;;;;;;20.10;100.00;101613.22;6050997;23;20055;-75